Terminal Aerodrome Forecast
Issued by NWS Austin/San Antonio, TX

Home | Current Version | Previous Version | Text Only | Print | Product List | Glossary On
Versions: 1 2 3 4 5 6 7 8 9 10 11 12 13 14 15 16 17 18 19 20 21 22 23 24 25 26 27 28 29 30 31
000
FTUS44 KEWX 180100 AAA
TAFDRT
TAF AMD
KDRT 180136Z 1802/1824 10005KT P6SM OVC010
     FM180700 34004KT 5SM BR OVC007
     FM181000 31004KT 1SM BR OVC003
     FM181600 31004KT P6SM OVC007
     FM181900 33005KT P6SM OVC030=

USA.gov is the U.S. government's official web portal to all federal, state and local government web resources and services.